sensor_id;sensor_type;location;lat;lon;timestamp;pressure;altitude;pressure_sealevel;temperature;humidity
64835;BME280;51293;59.296;18.006;2022-08-30T00:02:34;101710.97;;;10.86;82.28
64835;BME280;51293;59.296;18.006;2022-08-30T00:05:00;101705.97;;;10.83;82.73
64835;BME280;51293;59.296;18.006;2022-08-30T00:07:26;101711.59;;;10.81;83.04
64835;BME280;51293;59.296;18.006;2022-08-30T00:09:52;101712.03;;;10.78;82.96
64835;BME280;51293;59.296;18.006;2022-08-30T00:12:18;101706.16;;;10.75;83.27
64835;BME280;51293;59.296;18.006;2022-08-30T00:14:46;101710.34;;;10.71;83.53
64835;BME280;51293;59.296;18.006;2022-08-30T00:17:11;101715.16;;;10.68;83.58
64835;BME280;51293;59.296;18.006;2022-08-30T00:19:36;101707.63;;;10.64;84.14
64835;BME280;51293;59.296;18.006;2022-08-30T00:22:03;101710.53;;;10.62;84.25
64835;BME280;51293;59.296;18.006;2022-08-30T00:24:28;101703.84;;;10.58;84.47
64835;BME280;51293;59.296;18.006;2022-08-30T00:26:54;101713.03;;;10.57;84.59
64835;BME280;51293;59.296;18.006;2022-08-30T00:29:20;101716.56;;;10.58;84.60
64835;BME280;51293;59.296;18.006;2022-08-30T00:31:45;101714.50;;;10.53;85.12
64835;BME280;51293;59.296;18.006;2022-08-30T00:34:11;101708.84;;;10.48;85.37
64835;BME280;51293;59.296;18.006;2022-08-30T00:36:36;101719.28;;;10.45;85.68
64835;BME280;51293;59.296;18.006;2022-08-30T00:39:02;101715.75;;;10.44;85.56
64835;BME280;51293;59.296;18.006;2022-08-30T00:41:28;101708.00;;;10.41;85.75
64835;BME280;51293;59.296;18.006;2022-08-30T00:43:53;101708.00;;;10.41;85.94
64835;BME280;51293;59.296;18.006;2022-08-30T00:46:19;101709.25;;;10.38;86.21
64835;BME280;51293;59.296;18.006;2022-08-30T00:48:46;101712.81;;;10.39;86.15
64835;BME280;51293;59.296;18.006;2022-08-30T00:51:14;101712.19;;;10.37;86.42
64835;BME280;51293;59.296;18.006;2022-08-30T00:53:43;101706.75;;;10.37;86.37
64835;BME280;51293;59.296;18.006;2022-08-30T00:56:11;101704.25;;;10.35;86.65
64835;BME280;51293;59.296;18.006;2022-08-30T00:58:39;101706.31;;;10.33;86.38
64835;BME280;51293;59.296;18.006;2022-08-30T01:01:07;101707.81;;;10.36;86.67
64835;BME280;51293;59.296;18.006;2022-08-30T01:03:34;101712.41;;;10.35;86.65
64835;BME280;51293;59.296;18.006;2022-08-30T01:06:02;101714.25;;;10.28;87.25
64835;BME280;51293;59.296;18.006;2022-08-30T01:08:28;101715.06;;;10.29;87.07
64835;BME280;51293;59.296;18.006;2022-08-30T01:10:54;101708.22;;;10.26;87.25
64835;BME280;51293;59.296;18.006;2022-08-30T01:13:22;101719.66;;;10.28;87.31
64835;BME280;51293;59.296;18.006;2022-08-30T01:15:48;101712.97;;;10.24;87.47
64835;BME280;51293;59.296;18.006;2022-08-30T01:18:15;101709.44;;;10.24;87.48
64835;BME280;51293;59.296;18.006;2022-08-30T01:23:14;101705.25;;;10.21;87.87
64835;BME280;51293;59.296;18.006;2022-08-30T01:25:41;101705.69;;;10.25;87.48
64835;BME280;51293;59.296;18.006;2022-08-30T01:31:30;101701.94;;;10.26;87.50
64835;BME280;51293;59.296;18.006;2022-08-30T01:33:56;101701.53;;;10.29;87.40
64835;BME280;51293;59.296;18.006;2022-08-30T01:36:23;101700.09;;;10.26;87.54
64835;BME280;51293;59.296;18.006;2022-08-30T01:38:52;101695.06;;;10.23;87.59
64835;BME280;51293;59.296;18.006;2022-08-30T01:41:28;101695.25;;;10.22;87.64
64835;BME280;51293;59.296;18.006;2022-08-30T01:43:56;101695.44;;;10.20;87.84
64835;BME280;51293;59.296;18.006;2022-08-30T01:46:25;101697.78;;;10.23;87.79
64835;BME280;51293;59.296;18.006;2022-08-30T01:48:53;101692.53;;;10.22;87.85
64835;BME280;51293;59.296;18.006;2022-08-30T01:51:19;101699.38;;;10.18;88.09
64835;BME280;51293;59.296;18.006;2022-08-30T01:53:44;101691.69;;;10.21;87.88
64835;BME280;51293;59.296;18.006;2022-08-30T01:56:11;101690.25;;;10.19;88.18
64835;BME280;51293;59.296;18.006;2022-08-30T01:58:38;101707.50;;;10.18;87.99
64835;BME280;51293;59.296;18.006;2022-08-30T02:01:05;101697.53;;;10.18;88.09
64835;BME280;51293;59.296;18.006;2022-08-30T02:03:32;101706.66;;;10.17;88.20
64835;BME280;51293;59.296;18.006;2022-08-30T02:06:07;101696.66;;;10.18;88.32
64835;BME280;51293;59.296;18.006;2022-08-30T02:08:33;101692.13;;;10.18;88.25
64835;BME280;51293;59.296;18.006;2022-08-30T02:10:58;101701.47;;;10.16;88.43
64835;BME280;51293;59.296;18.006;2022-08-30T02:13:25;101702.28;;;10.16;88.28
64835;BME280;51293;59.296;18.006;2022-08-30T02:15:51;101698.34;;;10.12;88.63
64835;BME280;51293;59.296;18.006;2022-08-30T02:18:19;101691.25;;;10.11;88.82
64835;BME280;51293;59.296;18.006;2022-08-30T02:20:44;101700.22;;;10.11;88.88
64835;BME280;51293;59.296;18.006;2022-08-30T02:23:10;101706.66;;;10.10;88.93
64835;BME280;51293;59.296;18.006;2022-08-30T02:25:36;101695.19;;;10.08;88.96
64835;BME280;51293;59.296;18.006;2022-08-30T02:28:03;101700.81;;;10.07;89.17
64835;BME280;51293;59.296;18.006;2022-08-30T02:30:29;101694.56;;;10.06;89.41
64835;BME280;51293;59.296;18.006;2022-08-30T02:32:54;101692.91;;;10.05;89.61
64835;BME280;51293;59.296;18.006;2022-08-30T02:35:20;101695.41;;;10.07;89.57
64835;BME280;51293;59.296;18.006;2022-08-30T02:37:45;101699.97;;;10.06;89.60
64835;BME280;51293;59.296;18.006;2022-08-30T02:40:11;101702.94;;;10.11;89.58
64835;BME280;51293;59.296;18.006;2022-08-30T02:42:37;101687.91;;;10.09;89.49
64835;BME280;51293;59.296;18.006;2022-08-30T02:45:03;101691.66;;;10.08;89.75
64835;BME280;51293;59.296;18.006;2022-08-30T02:47:28;101697.06;;;10.08;89.84
64835;BME280;51293;59.296;18.006;2022-08-30T02:49:54;101694.78;;;10.05;89.90
64835;BME280;51293;59.296;18.006;2022-08-30T02:52:19;101696.22;;;10.07;89.92
64835;BME280;51293;59.296;18.006;2022-08-30T02:54:45;101692.09;;;10.11;90.03
64835;BME280;51293;59.296;18.006;2022-08-30T02:57:10;101700.84;;;10.13;89.65
64835;BME280;51293;59.296;18.006;2022-08-30T02:59:38;101704.59;;;10.12;89.80
64835;BME280;51293;59.296;18.006;2022-08-30T03:02:11;101712.91;;;10.11;89.70
64835;BME280;51293;59.296;18.006;2022-08-30T03:04:37;101703.75;;;10.12;89.71
64835;BME280;51293;59.296;18.006;2022-08-30T03:07:04;101698.34;;;10.12;89.67
64835;BME280;51293;59.296;18.006;2022-08-30T03:09:30;101697.50;;;10.11;89.77
64835;BME280;51293;59.296;18.006;2022-08-30T03:11:56;101712.09;;;10.10;89.82
64835;BME280;51293;59.296;18.006;2022-08-30T03:14:22;101703.75;;;10.12;89.83
64835;BME280;51293;59.296;18.006;2022-08-30T03:16:48;101690.81;;;10.07;89.97
64835;BME280;51293;59.296;18.006;2022-08-30T03:19:14;101696.03;;;10.09;89.96
64835;BME280;51293;59.296;18.006;2022-08-30T03:21:40;101702.31;;;10.09;89.83
64835;BME280;51293;59.296;18.006;2022-08-30T03:24:06;101699.97;;;10.06;90.11
64835;BME280;51293;59.296;18.006;2022-08-30T03:26:31;101700.19;;;10.05;90.40
64835;BME280;51293;59.296;18.006;2022-08-30T03:28:57;101689.78;;;10.02;90.56
64835;BME280;51293;59.296;18.006;2022-08-30T03:31:23;101701.44;;;10.02;90.69
64835;BME280;51293;59.296;18.006;2022-08-30T03:33:48;101700.59;;;10.02;90.77
64835;BME280;51293;59.296;18.006;2022-08-30T03:36:13;101692.69;;;10.07;90.71
64835;BME280;51293;59.296;18.006;2022-08-30T03:38:39;101701.84;;;10.06;90.72
64835;BME280;51293;59.296;18.006;2022-08-30T03:41:05;101697.28;;;10.06;90.51
64835;BME280;51293;59.296;18.006;2022-08-30T03:43:31;101703.72;;;10.05;90.62
64835;BME280;51293;59.296;18.006;2022-08-30T03:46:01;101697.28;;;10.06;90.87
64835;BME280;51293;59.296;18.006;2022-08-30T03:48:28;101703.97;;;10.10;90.63
64835;BME280;51293;59.296;18.006;2022-08-30T03:50:54;101705.84;;;10.10;90.60
64835;BME280;51293;59.296;18.006;2022-08-30T03:53:19;101706.84;;;10.09;90.61
64835;BME280;51293;59.296;18.006;2022-08-30T03:55:45;101706.66;;;10.10;90.77
64835;BME280;51293;59.296;18.006;2022-08-30T03:58:11;101716.47;;;10.11;90.73
64835;BME280;51293;59.296;18.006;2022-08-30T04:00:36;101725.81;;;10.16;90.70
64835;BME280;51293;59.296;18.006;2022-08-30T04:03:02;101717.50;;;10.17;90.43
64835;BME280;51293;59.296;18.006;2022-08-30T04:05:28;101720.03;;;10.19;90.47
64835;BME280;51293;59.296;18.006;2022-08-30T04:07:53;101726.28;;;10.19;90.62
64835;BME280;51293;59.296;18.006;2022-08-30T04:10:19;101718.78;;;10.21;90.41
64835;BME280;51293;59.296;18.006;2022-08-30T04:12:48;101716.72;;;10.23;90.38
64835;BME280;51293;59.296;18.006;2022-08-30T04:15:14;101714.63;;;10.25;90.25
64835;BME280;51293;59.296;18.006;2022-08-30T04:17:40;101723.41;;;10.27;90.21
64835;BME280;51293;59.296;18.006;2022-08-30T04:20:06;101718.81;;;10.28;90.22
64835;BME280;51293;59.296;18.006;2022-08-30T04:22:32;101725.91;;;10.29;90.01
64835;BME280;51293;59.296;18.006;2022-08-30T04:24:57;101728.81;;;10.27;90.18
64835;BME280;51293;59.296;18.006;2022-08-30T04:27:23;101726.13;;;10.27;90.15
64835;BME280;51293;59.296;18.006;2022-08-30T04:29:48;101731.94;;;10.31;90.09
64835;BME280;51293;59.296;18.006;2022-08-30T04:32:14;101728.19;;;10.32;89.75
64835;BME280;51293;59.296;18.006;2022-08-30T04:34:40;101739.03;;;10.32;90.14
64835;BME280;51293;59.296;18.006;2022-08-30T04:37:06;101740.06;;;10.31;90.16
64835;BME280;51293;59.296;18.006;2022-08-30T04:39:32;101743.63;;;10.31;90.24
64835;BME280;51293;59.296;18.006;2022-08-30T04:41:57;101739.25;;;10.30;89.99
64835;BME280;51293;59.296;18.006;2022-08-30T04:44:23;101744.44;;;10.32;90.17
64835;BME280;51293;59.296;18.006;2022-08-30T04:46:51;101745.06;;;10.34;90.19
64835;BME280;51293;59.296;18.006;2022-08-30T04:49:17;101750.31;;;10.35;90.19
64835;BME280;51293;59.296;18.006;2022-08-30T04:51:42;101745.50;;;10.37;90.05
64835;BME280;51293;59.296;18.006;2022-08-30T04:54:08;101742.38;;;10.40;89.88
64835;BME280;51293;59.296;18.006;2022-08-30T04:56:34;101741.78;;;10.45;89.84
64835;BME280;51293;59.296;18.006;2022-08-30T04:58:59;101750.31;;;10.49;89.71
64835;BME280;51293;59.296;18.006;2022-08-30T05:01:27;101744.69;;;10.50;89.78
64835;BME280;51293;59.296;18.006;2022-08-30T05:03:54;101748.47;;;10.56;89.63
64835;BME280;51293;59.296;18.006;2022-08-30T05:06:20;101748.91;;;10.59;89.33
64835;BME280;51293;59.296;18.006;2022-08-30T05:08:46;101744.09;;;10.61;89.09
64835;BME280;51293;59.296;18.006;2022-08-30T05:11:11;101746.38;;;10.64;88.97
64835;BME280;51293;59.296;18.006;2022-08-30T05:13:37;101757.66;;;10.68;88.82
64835;BME280;51293;59.296;18.006;2022-08-30T05:16:05;101758.69;;;10.74;88.71
64835;BME280;51293;59.296;18.006;2022-08-30T05:18:31;101745.59;;;10.77;88.35
64835;BME280;51293;59.296;18.006;2022-08-30T05:21:04;101752.25;;;10.81;88.33
64835;BME280;51293;59.296;18.006;2022-08-30T05:23:30;101759.97;;;10.84;87.94
64835;BME280;51293;59.296;18.006;2022-08-30T05:25:55;101757.47;;;10.89;87.35
64835;BME280;51293;59.296;18.006;2022-08-30T05:28:21;101757.69;;;10.94;87.22
64835;BME280;51293;59.296;18.006;2022-08-30T05:30:46;101759.16;;;11.04;86.43
64835;BME280;51293;59.296;18.006;2022-08-30T05:33:12;101760.19;;;11.09;86.17
64835;BME280;51293;59.296;18.006;2022-08-30T05:35:37;101761.22;;;11.15;86.03
64835;BME280;51293;59.296;18.006;2022-08-30T05:38:03;101760.16;;;11.22;85.95
64835;BME280;51293;59.296;18.006;2022-08-30T05:40:29;101767.69;;;11.27;85.49
64835;BME280;51293;59.296;18.006;2022-08-30T05:42:55;101767.69;;;11.34;85.30
64835;BME280;51293;59.296;18.006;2022-08-30T05:45:20;101770.59;;;11.39;85.08
64835;BME280;51293;59.296;18.006;2022-08-30T05:47:46;101769.13;;;11.43;84.70
64835;BME280;51293;59.296;18.006;2022-08-30T05:50:12;101767.88;;;11.52;84.38
64835;BME280;51293;59.296;18.006;2022-08-30T05:52:39;101761.56;;;11.58;83.73
64835;BME280;51293;59.296;18.006;2022-08-30T05:55:06;101766.16;;;11.64;82.80
64835;BME280;51293;59.296;18.006;2022-08-30T05:57:36;101762.38;;;11.72;82.82
64835;BME280;51293;59.296;18.006;2022-08-30T06:00:08;101768.84;;;11.77;82.78
64835;BME280;51293;59.296;18.006;2022-08-30T06:02:35;101765.31;;;11.84;82.32
64835;BME280;51293;59.296;18.006;2022-08-30T06:05:02;101765.28;;;11.90;82.43
64835;BME280;51293;59.296;18.006;2022-08-30T06:07:28;101767.56;;;12.00;82.18
64835;BME280;51293;59.296;18.006;2022-08-30T06:09:54;101774.81;;;12.06;81.77
64835;BME280;51293;59.296;18.006;2022-08-30T06:12:19;101776.69;;;12.12;81.63
64835;BME280;51293;59.296;18.006;2022-08-30T06:14:45;101779.38;;;12.19;81.15
64835;BME280;51293;59.296;18.006;2022-08-30T06:17:11;101779.97;;;12.27;81.64
64835;BME280;51293;59.296;18.006;2022-08-30T06:19:36;101782.22;;;12.37;81.03
64835;BME280;51293;59.296;18.006;2022-08-30T06:22:02;101783.25;;;12.43;80.65
64835;BME280;51293;59.296;18.006;2022-08-30T06:24:27;101779.38;;;12.57;80.43
64835;BME280;51293;59.296;18.006;2022-08-30T06:26:52;101778.09;;;12.66;80.32
64835;BME280;51293;59.296;18.006;2022-08-30T06:29:19;101781.56;;;12.73;79.41
64835;BME280;51293;59.296;18.006;2022-08-30T06:31:45;101778.59;;;12.81;79.55
64835;BME280;51293;59.296;18.006;2022-08-30T06:34:12;101776.25;;;12.91;79.44
64835;BME280;51293;59.296;18.006;2022-08-30T06:36:38;101771.78;;;12.97;79.44
64835;BME280;51293;59.296;18.006;2022-08-30T06:39:04;101772.09;;;13.07;79.36
64835;BME280;51293;59.296;18.006;2022-08-30T06:41:31;101770.16;;;13.14;78.78
64835;BME280;51293;59.296;18.006;2022-08-30T06:43:59;101786.88;;;13.25;78.66
64835;BME280;51293;59.296;18.006;2022-08-30T06:46:28;101774.44;;;13.35;79.16
64835;BME280;51293;59.296;18.006;2022-08-30T06:48:55;101772.25;;;13.44;78.26
64835;BME280;51293;59.296;18.006;2022-08-30T06:51:23;101771.56;;;13.48;77.83
64835;BME280;51293;59.296;18.006;2022-08-30T06:53:49;101785.50;;;13.59;77.77
64835;BME280;51293;59.296;18.006;2022-08-30T06:56:15;101780.44;;;13.62;77.25
64835;BME280;51293;59.296;18.006;2022-08-30T06:58:41;101783.94;;;13.69;78.18
64835;BME280;51293;59.296;18.006;2022-08-30T07:01:10;101786.81;;;13.74;77.29
64835;BME280;51293;59.296;18.006;2022-08-30T07:03:36;101785.69;;;13.82;77.55
64835;BME280;51293;59.296;18.006;2022-08-30T07:06:01;101790.38;;;13.93;77.59
64835;BME280;51293;59.296;18.006;2022-08-30T07:08:27;101788.63;;;13.99;76.71
64835;BME280;51293;59.296;18.006;2022-08-30T07:10:53;101785.81;;;14.05;76.38
64835;BME280;51293;59.296;18.006;2022-08-30T07:13:20;101785.41;;;14.20;76.09
64835;BME280;51293;59.296;18.006;2022-08-30T07:15:46;101787.56;;;14.18;75.20
64835;BME280;51293;59.296;18.006;2022-08-30T07:18:12;101785.81;;;14.24;75.34
64835;BME280;51293;59.296;18.006;2022-08-30T07:20:57;101786.31;;;14.32;75.90
64835;BME280;51293;59.296;18.006;2022-08-30T07:23:23;101785.25;;;14.33;74.31
64835;BME280;51293;59.296;18.006;2022-08-30T07:25:49;101788.94;;;14.39;76.05
64835;BME280;51293;59.296;18.006;2022-08-30T07:28:15;101791.16;;;14.49;75.13
64835;BME280;51293;59.296;18.006;2022-08-30T07:30:41;101787.97;;;14.52;75.44
64835;BME280;51293;59.296;18.006;2022-08-30T07:33:08;101790.28;;;14.67;74.86
64835;BME280;51293;59.296;18.006;2022-08-30T07:35:33;101795.16;;;14.65;73.78
64835;BME280;51293;59.296;18.006;2022-08-30T07:37:59;101788.16;;;14.69;74.23
64835;BME280;51293;59.296;18.006;2022-08-30T07:40:25;101782.28;;;14.83;73.58
64835;BME280;51293;59.296;18.006;2022-08-30T07:42:51;101789.88;;;14.93;73.35
64835;BME280;51293;59.296;18.006;2022-08-30T07:45:16;101786.09;;;15.06;72.24
64835;BME280;51293;59.296;18.006;2022-08-30T07:47:43;101789.69;;;15.18;72.65
64835;BME280;51293;59.296;18.006;2022-08-30T07:50:08;101792.41;;;15.30;71.56
64835;BME280;51293;59.296;18.006;2022-08-30T07:52:34;101791.00;;;15.39;71.09
64835;BME280;51293;59.296;18.006;2022-08-30T07:54:59;101800.38;;;15.55;70.61
64835;BME280;51293;59.296;18.006;2022-08-30T07:57:26;101802.19;;;15.84;69.62
64835;BME280;51293;59.296;18.006;2022-08-30T08:03:13;101794.00;;;16.24;67.08
64835;BME280;51293;59.296;18.006;2022-08-30T08:05:40;101800.81;;;16.50;66.50
64835;BME280;51293;59.296;18.006;2022-08-30T08:08:07;101794.91;;;16.70;65.40
64835;BME280;51293;59.296;18.006;2022-08-30T08:10:35;101797.63;;;16.99;64.81
64835;BME280;51293;59.296;18.006;2022-08-30T08:13:00;101800.63;;;17.14;63.33
64835;BME280;51293;59.296;18.006;2022-08-30T08:15:26;101798.13;;;17.12;61.18
64835;BME280;51293;59.296;18.006;2022-08-30T08:17:52;101805.09;;;17.37;61.34
64835;BME280;51293;59.296;18.006;2022-08-30T08:20:17;101799.53;;;17.49;60.22
64835;BME280;51293;59.296;18.006;2022-08-30T08:22:43;101801.69;;;17.47;59.15
64835;BME280;51293;59.296;18.006;2022-08-30T08:25:08;101797.44;;;17.56;58.20
64835;BME280;51293;59.296;18.006;2022-08-30T08:27:33;101802.97;;;17.61;58.35
64835;BME280;51293;59.296;18.006;2022-08-30T08:29:59;101805.28;;;17.69;58.36
64835;BME280;51293;59.296;18.006;2022-08-30T08:32:25;101803.19;;;17.71;59.48
64835;BME280;51293;59.296;18.006;2022-08-30T08:34:50;101806.72;;;17.88;59.68
64835;BME280;51293;59.296;18.006;2022-08-30T08:37:15;101805.56;;;17.84;58.12
64835;BME280;51293;59.296;18.006;2022-08-30T08:39:42;101791.53;;;17.64;58.36
64835;BME280;51293;59.296;18.006;2022-08-30T08:42:25;101803.81;;;17.78;58.62
64835;BME280;51293;59.296;18.006;2022-08-30T08:44:59;101805.97;;;17.76;59.10
64835;BME280;51293;59.296;18.006;2022-08-30T08:50:17;101812.13;;;17.66;58.00
64835;BME280;51293;59.296;18.006;2022-08-30T08:53:11;101808.56;;;17.66;55.21
64835;BME280;51293;59.296;18.006;2022-08-30T08:55:57;101810.41;;;17.27;55.27
64835;BME280;51293;59.296;18.006;2022-08-30T08:58:26;101806.00;;;17.09;53.66
64835;BME280;51293;59.296;18.006;2022-08-30T09:00:53;101813.72;;;17.29;54.25
64835;BME280;51293;59.296;18.006;2022-08-30T09:03:22;101809.56;;;17.43;53.01
64835;BME280;51293;59.296;18.006;2022-08-30T09:05:48;101809.91;;;17.63;52.57
64835;BME280;51293;59.296;18.006;2022-08-30T09:08:17;101815.47;;;18.07;51.89
64835;BME280;51293;59.296;18.006;2022-08-30T09:11:04;101822.47;;;18.91;50.75
64835;BME280;51293;59.296;18.006;2022-08-30T09:13:35;101812.25;;;19.87;49.73
64835;BME280;51293;59.296;18.006;2022-08-30T09:16:00;101818.31;;;20.47;50.11
64835;BME280;51293;59.296;18.006;2022-08-30T09:21:07;101820.72;;;19.44;51.30
64835;BME280;51293;59.296;18.006;2022-08-30T09:23:33;101812.88;;;19.57;51.50
64835;BME280;51293;59.296;18.006;2022-08-30T09:26:01;101830.16;;;19.21;52.29
64835;BME280;51293;59.296;18.006;2022-08-30T09:28:32;101834.31;;;18.69;53.50
64835;BME280;51293;59.296;18.006;2022-08-30T09:33:30;101819.81;;;17.86;55.93
64835;BME280;51293;59.296;18.006;2022-08-30T09:35:56;101826.03;;;17.99;55.22
64835;BME280;51293;59.296;18.006;2022-08-30T09:38:29;101819.47;;;18.00;54.50
64835;BME280;51293;59.296;18.006;2022-08-30T09:40:58;101829.66;;;18.26;55.42
64835;BME280;51293;59.296;18.006;2022-08-30T09:43:30;101827.69;;;18.43;54.31
64835;BME280;51293;59.296;18.006;2022-08-30T09:56:53;101831.06;;;18.50;54.96
64835;BME280;51293;59.296;18.006;2022-08-30T09:59:45;101828.66;;;18.32;56.32
64835;BME280;51293;59.296;18.006;2022-08-30T10:05:11;101824.13;;;17.99;55.42
64835;BME280;51293;59.296;18.006;2022-08-30T10:20:37;101826.03;;;18.91;53.93
64835;BME280;51293;59.296;18.006;2022-08-30T10:23:07;101821.75;;;18.73;54.58
64835;BME280;51293;59.296;18.006;2022-08-30T10:28:08;101821.53;;;18.58;54.37
64835;BME280;51293;59.296;18.006;2022-08-30T10:30:38;101835.16;;;18.26;56.51
64835;BME280;51293;59.296;18.006;2022-08-30T10:33:14;101841.34;;;18.16;57.82
64835;BME280;51293;59.296;18.006;2022-08-30T10:35:50;101832.91;;;17.79;60.00
64835;BME280;51293;59.296;18.006;2022-08-30T10:38:54;101850.16;;;17.63;61.48
64835;BME280;51293;59.296;18.006;2022-08-30T10:41:38;101851.56;;;17.82;61.87
64835;BME280;51293;59.296;18.006;2022-08-30T10:49:16;101847.44;;;18.02;60.87
64835;BME280;51293;59.296;18.006;2022-08-30T10:51:46;101855.41;;;18.03;61.73
64835;BME280;51293;59.296;18.006;2022-08-30T10:54:20;101865.06;;;18.28;61.42
64835;BME280;51293;59.296;18.006;2022-08-30T10:56:49;101853.22;;;18.22;60.88
64835;BME280;51293;59.296;18.006;2022-08-30T10:59:17;101858.97;;;18.20;60.71
64835;BME280;51293;59.296;18.006;2022-08-30T11:07:40;101860.34;;;18.45;61.04
64835;BME280;51293;59.296;18.006;2022-08-30T11:13:03;101861.34;;;18.61;60.37
64835;BME280;51293;59.296;18.006;2022-08-30T11:15:34;101852.41;;;18.65;60.84
64835;BME280;51293;59.296;18.006;2022-08-30T11:18:20;101855.56;;;19.06;58.86
64835;BME280;51293;59.296;18.006;2022-08-30T11:20:53;101854.97;;;19.31;58.32
64835;BME280;51293;59.296;18.006;2022-08-30T11:23:31;101847.56;;;19.63;57.51
64835;BME280;51293;59.296;18.006;2022-08-30T11:26:05;101869.34;;;19.43;58.23
64835;BME280;51293;59.296;18.006;2022-08-30T11:36:10;101871.72;;;17.26;63.14
64835;BME280;51293;59.296;18.006;2022-08-30T11:46:39;101877.03;;;16.87;64.63
64835;BME280;51293;59.296;18.006;2022-08-30T12:00:34;101854.53;;;21.42;50.62
64835;BME280;51293;59.296;18.006;2022-08-30T12:03:26;101869.16;;;21.27;49.01
64835;BME280;51293;59.296;18.006;2022-08-30T12:06:04;101845.09;;;20.14;50.47
64835;BME280;51293;59.296;18.006;2022-08-30T12:13:50;101862.19;;;18.83;55.28
64835;BME280;51293;59.296;18.006;2022-08-30T12:16:21;101868.44;;;18.57;56.56
64835;BME280;51293;59.296;18.006;2022-08-30T12:19:10;101866.50;;;18.30;58.28
64835;BME280;51293;59.296;18.006;2022-08-30T12:21:38;101871.16;;;17.91;58.94
64835;BME280;51293;59.296;18.006;2022-08-30T12:24:15;101870.59;;;17.72;59.93
64835;BME280;51293;59.296;18.006;2022-08-30T12:26:44;101878.97;;;17.65;60.03
64835;BME280;51293;59.296;18.006;2022-08-30T12:34:28;101875.63;;;17.30;62.33
64835;BME280;51293;59.296;18.006;2022-08-30T12:37:01;101877.44;;;17.24;62.64
64835;BME280;51293;59.296;18.006;2022-08-30T12:39:31;101877.28;;;17.14;63.14
64835;BME280;51293;59.296;18.006;2022-08-30T12:42:20;101877.00;;;16.99;62.78
64835;BME280;51293;59.296;18.006;2022-08-30T12:44:48;101875.13;;;16.88;63.45
64835;BME280;51293;59.296;18.006;2022-08-30T12:47:18;101885.41;;;16.80;63.82
64835;BME280;51293;59.296;18.006;2022-08-30T12:49:44;101886.69;;;16.90;64.54
64835;BME280;51293;59.296;18.006;2022-08-30T12:52:15;101879.88;;;16.92;64.58
64835;BME280;51293;59.296;18.006;2022-08-30T12:54:42;101889.38;;;17.18;63.60
64835;BME280;51293;59.296;18.006;2022-08-30T12:57:09;101883.28;;;16.99;65.34
64835;BME280;51293;59.296;18.006;2022-08-30T12:59:52;101889.50;;;16.95;66.04
64835;BME280;51293;59.296;18.006;2022-08-30T13:02:22;101882.03;;;16.90;65.79
64835;BME280;51293;59.296;18.006;2022-08-30T13:04:49;101880.78;;;16.69;66.82
64835;BME280;51293;59.296;18.006;2022-08-30T13:07:27;101887.75;;;17.67;65.95
64835;BME280;51293;59.296;18.006;2022-08-30T13:10:19;101878.03;;;18.32;61.44
64835;BME280;51293;59.296;18.006;2022-08-30T13:13:02;101887.91;;;18.77;60.05
64835;BME280;51293;59.296;18.006;2022-08-30T13:15:32;101878.19;;;19.50;57.89
64835;BME280;51293;59.296;18.006;2022-08-30T13:18:16;101885.00;;;19.70;56.88
64835;BME280;51293;59.296;18.006;2022-08-30T13:20:43;101879.34;;;19.91;54.79
64835;BME280;51293;59.296;18.006;2022-08-30T13:23:10;101878.94;;;19.73;55.31
64835;BME280;51293;59.296;18.006;2022-08-30T13:25:37;101870.00;;;19.55;54.10
64835;BME280;51293;59.296;18.006;2022-08-30T13:28:05;101878.41;;;19.71;53.65
64835;BME280;51293;59.296;18.006;2022-08-30T13:30:32;101873.91;;;20.02;52.34
64835;BME280;51293;59.296;18.006;2022-08-30T13:32:57;101872.56;;;20.57;51.83
64835;BME280;51293;59.296;18.006;2022-08-30T13:35:25;101871.38;;;21.36;50.57
64835;BME280;51293;59.296;18.006;2022-08-30T13:37:51;101870.75;;;21.90;48.33
64835;BME280;51293;59.296;18.006;2022-08-30T13:40:17;101869.06;;;22.14;47.22
64835;BME280;51293;59.296;18.006;2022-08-30T13:42:43;101871.09;;;22.58;46.43
64835;BME280;51293;59.296;18.006;2022-08-30T13:45:12;101868.69;;;23.01;45.44
64835;BME280;51293;59.296;18.006;2022-08-30T13:47:38;101873.97;;;23.65;41.71
64835;BME280;51293;59.296;18.006;2022-08-30T13:50:04;101875.47;;;23.47;41.45
64835;BME280;51293;59.296;18.006;2022-08-30T13:52:30;101870.38;;;23.94;40.39
64835;BME280;51293;59.296;18.006;2022-08-30T13:54:56;101869.25;;;23.66;40.82
64835;BME280;51293;59.296;18.006;2022-08-30T13:57:24;101867.94;;;23.87;40.45
64835;BME280;51293;59.296;18.006;2022-08-30T13:59:49;101867.06;;;24.16;39.92
64835;BME280;51293;59.296;18.006;2022-08-30T14:02:15;101855.78;;;24.12;39.26
64835;BME280;51293;59.296;18.006;2022-08-30T14:04:40;101863.59;;;24.34;39.29
64835;BME280;51293;59.296;18.006;2022-08-30T14:07:06;101867.50;;;24.28;38.64
64835;BME280;51293;59.296;18.006;2022-08-30T14:09:31;101857.81;;;24.49;38.25
64835;BME280;51293;59.296;18.006;2022-08-30T14:11:57;101859.97;;;24.76;38.61
64835;BME280;51293;59.296;18.006;2022-08-30T14:14:22;101853.97;;;24.69;38.26
64835;BME280;51293;59.296;18.006;2022-08-30T14:16:48;101858.16;;;24.67;38.23
64835;BME280;51293;59.296;18.006;2022-08-30T14:19:14;101862.91;;;23.94;39.93
64835;BME280;51293;59.296;18.006;2022-08-30T14:21:41;101864.09;;;23.54;40.79
64835;BME280;51293;59.296;18.006;2022-08-30T14:24:07;101876.25;;;22.85;41.48